sensor_id;sensor_type;location;lat;lon;timestamp;temperature;humidity
3919;DHT22;1974;48.670;8.994;2023-04-20T00:00:43;5.40;99.90
3919;DHT22;1974;48.670;8.994;2023-04-20T00:03:09;5.30;99.90
3919;DHT22;1974;48.670;8.994;2023-04-20T00:05:37;5.30;99.90
3919;DHT22;1974;48.670;8.994;2023-04-20T00:08:05;5.20;99.90
3919;DHT22;1974;48.670;8.994;2023-04-20T00:10:32;5.20;99.90
3919;DHT22;1974;48.670;8.994;2023-04-20T00:12:59;5.20;99.90
3919;DHT22;1974;48.670;8.994;2023-04-20T00:15:25;5.20;99.90
3919;DHT22;1974;48.670;8.994;2023-04-20T00:17:52;5.20;99.90
3919;DHT22;1974;48.670;8.994;2023-04-20T00:20:19;5.10;99.90
3919;DHT22;1974;48.670;8.994;2023-04-20T00:22:45;5.10;99.90
3919;DHT22;1974;48.670;8.994;2023-04-20T00:25:13;5.00;99.90
3919;DHT22;1974;48.670;8.994;2023-04-20T00:27:40;5.00;99.90
3919;DHT22;1974;48.670;8.994;2023-04-20T00:30:09;4.90;99.90
3919;DHT22;1974;48.670;8.994;2023-04-20T00:32:35;4.90;99.90
3919;DHT22;1974;48.670;8.994;2023-04-20T00:35:02;4.80;99.90
3919;DHT22;1974;48.670;8.994;2023-04-20T00:37:29;4.70;99.90
3919;DHT22;1974;48.670;8.994;2023-04-20T00:39:56;4.70;99.90
3919;DHT22;1974;48.670;8.994;2023-04-20T00:42:24;4.70;99.90
3919;DHT22;1974;48.670;8.994;2023-04-20T00:44:51;4.70;99.90
3919;DHT22;1974;48.670;8.994;2023-04-20T00:47:18;4.70;99.90
3919;DHT22;1974;48.670;8.994;2023-04-20T00:49:44;4.60;99.90
3919;DHT22;1974;48.670;8.994;2023-04-20T00:52:11;4.60;99.90
3919;DHT22;1974;48.670;8.994;2023-04-20T00:54:38;4.60;99.90
3919;DHT22;1974;48.670;8.994;2023-04-20T00:57:05;4.60;99.90
3919;DHT22;1974;48.670;8.994;2023-04-20T00:59:33;4.60;99.90
3919;DHT22;1974;48.670;8.994;2023-04-20T01:01:59;4.60;99.90
3919;DHT22;1974;48.670;8.994;2023-04-20T01:04:26;4.50;99.90
3919;DHT22;1974;48.670;8.994;2023-04-20T01:06:54;4.50;99.90
3919;DHT22;1974;48.670;8.994;2023-04-20T01:09:21;4.40;99.90
3919;DHT22;1974;48.670;8.994;2023-04-20T01:11:48;4.40;99.90
3919;DHT22;1974;48.670;8.994;2023-04-20T01:14:14;4.40;99.90
3919;DHT22;1974;48.670;8.994;2023-04-20T01:16:42;4.30;99.90
3919;DHT22;1974;48.670;8.994;2023-04-20T01:19:11;4.30;99.90
3919;DHT22;1974;48.670;8.994;2023-04-20T01:21:39;4.30;99.90
3919;DHT22;1974;48.670;8.994;2023-04-20T01:24:07;4.20;99.90
3919;DHT22;1974;48.670;8.994;2023-04-20T01:26:34;4.20;99.90
3919;DHT22;1974;48.670;8.994;2023-04-20T01:29:01;4.20;99.90
3919;DHT22;1974;48.670;8.994;2023-04-20T01:31:27;4.20;99.90
3919;DHT22;1974;48.670;8.994;2023-04-20T01:33:54;4.20;99.90
3919;DHT22;1974;48.670;8.994;2023-04-20T01:36:21;4.10;99.90
3919;DHT22;1974;48.670;8.994;2023-04-20T01:38:47;4.10;99.90
3919;DHT22;1974;48.670;8.994;2023-04-20T01:41:16;4.00;99.90
3919;DHT22;1974;48.670;8.994;2023-04-20T01:43:42;4.00;99.90
3919;DHT22;1974;48.670;8.994;2023-04-20T01:46:09;4.00;99.90
3919;DHT22;1974;48.670;8.994;2023-04-20T01:48:36;4.00;99.90
3919;DHT22;1974;48.670;8.994;2023-04-20T01:51:02;4.00;99.90
3919;DHT22;1974;48.670;8.994;2023-04-20T01:53:29;4.00;99.90
3919;DHT22;1974;48.670;8.994;2023-04-20T01:55:56;4.00;99.90
3919;DHT22;1974;48.670;8.994;2023-04-20T01:58:24;4.00;99.90
3919;DHT22;1974;48.670;8.994;2023-04-20T02:00:50;3.90;99.90
3919;DHT22;1974;48.670;8.994;2023-04-20T02:03:17;3.90;99.90
3919;DHT22;1974;48.670;8.994;2023-04-20T02:05:44;3.90;99.90
3919;DHT22;1974;48.670;8.994;2023-04-20T02:08:10;3.90;99.90
3919;DHT22;1974;48.670;8.994;2023-04-20T02:10:37;3.90;99.90
3919;DHT22;1974;48.670;8.994;2023-04-20T02:13:04;3.80;99.90
3919;DHT22;1974;48.670;8.994;2023-04-20T02:15:32;3.80;99.90
3919;DHT22;1974;48.670;8.994;2023-04-20T02:17:58;3.80;99.90
3919;DHT22;1974;48.670;8.994;2023-04-20T02:20:25;3.80;99.90
3919;DHT22;1974;48.670;8.994;2023-04-20T02:22:52;3.70;99.90
3919;DHT22;1974;48.670;8.994;2023-04-20T02:25:20;3.70;99.90
3919;DHT22;1974;48.670;8.994;2023-04-20T02:27:47;3.70;99.90
3919;DHT22;1974;48.670;8.994;2023-04-20T02:30:14;3.70;99.90
3919;DHT22;1974;48.670;8.994;2023-04-20T02:32:42;3.70;99.90
3919;DHT22;1974;48.670;8.994;2023-04-20T02:35:09;3.60;99.90
3919;DHT22;1974;48.670;8.994;2023-04-20T02:37:36;3.60;99.90
3919;DHT22;1974;48.670;8.994;2023-04-20T02:40:03;3.50;99.90
3919;DHT22;1974;48.670;8.994;2023-04-20T02:42:30;3.50;99.90
3919;DHT22;1974;48.670;8.994;2023-04-20T02:44:56;3.50;99.90
3919;DHT22;1974;48.670;8.994;2023-04-20T02:47:23;3.40;99.90
3919;DHT22;1974;48.670;8.994;2023-04-20T02:49:51;3.40;99.90
3919;DHT22;1974;48.670;8.994;2023-04-20T02:52:18;3.30;99.90
3919;DHT22;1974;48.670;8.994;2023-04-20T02:54:45;3.30;99.90
3919;DHT22;1974;48.670;8.994;2023-04-20T02:57:11;3.20;99.90
3919;DHT22;1974;48.670;8.994;2023-04-20T02:59:38;3.20;99.90
3919;DHT22;1974;48.670;8.994;2023-04-20T03:02:05;3.20;99.90
3919;DHT22;1974;48.670;8.994;2023-04-20T03:04:32;3.10;99.90
3919;DHT22;1974;48.670;8.994;2023-04-20T03:07:00;3.10;99.90
3919;DHT22;1974;48.670;8.994;2023-04-20T03:09:27;3.10;99.90
3919;DHT22;1974;48.670;8.994;2023-04-20T03:11:54;3.10;99.90
3919;DHT22;1974;48.670;8.994;2023-04-20T03:14:21;3.00;99.90
3919;DHT22;1974;48.670;8.994;2023-04-20T03:16:47;3.00;99.90
3919;DHT22;1974;48.670;8.994;2023-04-20T03:19:14;3.00;99.90
3919;DHT22;1974;48.670;8.994;2023-04-20T03:21:41;3.00;99.90
3919;DHT22;1974;48.670;8.994;2023-04-20T03:24:09;3.00;99.90
3919;DHT22;1974;48.670;8.994;2023-04-20T03:26:36;3.00;99.90
3919;DHT22;1974;48.670;8.994;2023-04-20T03:29:03;3.00;99.90
3919;DHT22;1974;48.670;8.994;2023-04-20T03:31:30;3.00;99.90
3919;DHT22;1974;48.670;8.994;2023-04-20T03:33:56;3.00;99.90
3919;DHT22;1974;48.670;8.994;2023-04-20T03:36:23;3.00;99.90
3919;DHT22;1974;48.670;8.994;2023-04-20T03:38:50;3.00;99.90
3919;DHT22;1974;48.670;8.994;2023-04-20T03:41:18;2.90;99.90
3919;DHT22;1974;48.670;8.994;2023-04-20T03:43:45;2.90;99.90
3919;DHT22;1974;48.670;8.994;2023-04-20T03:46:12;2.90;99.90
3919;DHT22;1974;48.670;8.994;2023-04-20T03:48:38;2.90;99.90
3919;DHT22;1974;48.670;8.994;2023-04-20T03:51:05;2.90;99.90
3919;DHT22;1974;48.670;8.994;2023-04-20T03:53:32;2.90;99.90
3919;DHT22;1974;48.670;8.994;2023-04-20T03:55:59;3.00;99.90
3919;DHT22;1974;48.670;8.994;2023-04-20T03:58:27;2.90;99.90
3919;DHT22;1974;48.670;8.994;2023-04-20T04:01:00;2.90;99.90
3919;DHT22;1974;48.670;8.994;2023-04-20T04:03:27;2.90;99.90
3919;DHT22;1974;48.670;8.994;2023-04-20T04:05:54;2.90;99.90
3919;DHT22;1974;48.670;8.994;2023-04-20T04:08:20;2.80;99.90
3919;DHT22;1974;48.670;8.994;2023-04-20T04:10:47;2.80;99.90
3919;DHT22;1974;48.670;8.994;2023-04-20T04:13:14;2.80;99.90
3919;DHT22;1974;48.670;8.994;2023-04-20T04:15:42;2.80;99.90
3919;DHT22;1974;48.670;8.994;2023-04-20T04:18:09;2.80;99.90
3919;DHT22;1974;48.670;8.994;2023-04-20T04:20:35;2.80;99.90
3919;DHT22;1974;48.670;8.994;2023-04-20T04:23:02;2.80;99.90
3919;DHT22;1974;48.670;8.994;2023-04-20T04:25:29;2.70;99.90
3919;DHT22;1974;48.670;8.994;2023-04-20T04:27:56;2.70;99.90
3919;DHT22;1974;48.670;8.994;2023-04-20T04:30:23;2.70;99.90
3919;DHT22;1974;48.670;8.994;2023-04-20T04:32:51;2.80;99.90
3919;DHT22;1974;48.670;8.994;2023-04-20T04:35:18;2.80;99.90
3919;DHT22;1974;48.670;8.994;2023-04-20T04:37:45;2.80;99.90
3919;DHT22;1974;48.670;8.994;2023-04-20T04:40:12;2.80;99.90
3919;DHT22;1974;48.670;8.994;2023-04-20T04:42:39;2.80;99.90
3919;DHT22;1974;48.670;8.994;2023-04-20T04:45:07;2.80;99.90
3919;DHT22;1974;48.670;8.994;2023-04-20T04:47:35;2.80;99.90
3919;DHT22;1974;48.670;8.994;2023-04-20T04:50:04;2.80;99.90
3919;DHT22;1974;48.670;8.994;2023-04-20T04:52:31;2.80;99.90
3919;DHT22;1974;48.670;8.994;2023-04-20T04:54:58;2.90;99.90
3919;DHT22;1974;48.670;8.994;2023-04-20T04:57:25;2.80;99.90
3919;DHT22;1974;48.670;8.994;2023-04-20T04:59:52;2.90;99.90
3919;DHT22;1974;48.670;8.994;2023-04-20T05:02:19;2.90;99.90
3919;DHT22;1974;48.670;8.994;2023-04-20T05:04:46;3.00;99.90
3919;DHT22;1974;48.670;8.994;2023-04-20T05:07:14;3.00;99.90
3919;DHT22;1974;48.670;8.994;2023-04-20T05:09:41;3.00;99.90
3919;DHT22;1974;48.670;8.994;2023-04-20T05:12:08;3.10;99.90
3919;DHT22;1974;48.670;8.994;2023-04-20T05:14:35;3.10;99.90
3919;DHT22;1974;48.670;8.994;2023-04-20T05:17:01;3.10;99.90
3919;DHT22;1974;48.670;8.994;2023-04-20T05:19:28;3.20;99.90
3919;DHT22;1974;48.670;8.994;2023-04-20T05:21:55;3.20;99.90
3919;DHT22;1974;48.670;8.994;2023-04-20T05:24:23;3.40;99.90
3919;DHT22;1974;48.670;8.994;2023-04-20T05:26:50;3.50;99.90
3919;DHT22;1974;48.670;8.994;2023-04-20T05:29:16;3.60;99.90
3919;DHT22;1974;48.670;8.994;2023-04-20T05:31:43;3.70;99.90
3919;DHT22;1974;48.670;8.994;2023-04-20T05:34:10;3.80;99.90
3919;DHT22;1974;48.670;8.994;2023-04-20T05:36:38;3.90;99.90
3919;DHT22;1974;48.670;8.994;2023-04-20T05:39:05;3.90;99.90
3919;DHT22;1974;48.670;8.994;2023-04-20T05:41:33;4.00;99.90
3919;DHT22;1974;48.670;8.994;2023-04-20T05:44:00;4.10;99.90
3919;DHT22;1974;48.670;8.994;2023-04-20T05:46:27;4.10;99.90
3919;DHT22;1974;48.670;8.994;2023-04-20T05:48:54;4.20;99.90
3919;DHT22;1974;48.670;8.994;2023-04-20T05:51:20;4.40;99.90
3919;DHT22;1974;48.670;8.994;2023-04-20T05:53:47;4.60;99.90
3919;DHT22;1974;48.670;8.994;2023-04-20T05:56:14;4.90;99.90
3919;DHT22;1974;48.670;8.994;2023-04-20T05:58:44;5.20;99.90
3919;DHT22;1974;48.670;8.994;2023-04-20T06:01:11;5.60;99.90
3919;DHT22;1974;48.670;8.994;2023-04-20T06:03:38;5.90;99.90
3919;DHT22;1974;48.670;8.994;2023-04-20T06:06:05;6.40;99.90
3919;DHT22;1974;48.670;8.994;2023-04-20T06:08:32;7.00;99.90
3919;DHT22;1974;48.670;8.994;2023-04-20T06:10:58;7.50;99.90
3919;DHT22;1974;48.670;8.994;2023-04-20T06:13:25;8.20;99.90
3919;DHT22;1974;48.670;8.994;2023-04-20T06:15:53;8.60;99.90
3919;DHT22;1974;48.670;8.994;2023-04-20T06:18:21;8.90;99.90
3919;DHT22;1974;48.670;8.994;2023-04-20T06:20:47;8.90;99.90
3919;DHT22;1974;48.670;8.994;2023-04-20T06:23:14;8.90;99.90
3919;DHT22;1974;48.670;8.994;2023-04-20T06:25:41;9.00;99.90
3919;DHT22;1974;48.670;8.994;2023-04-20T06:28:08;9.20;99.90
3919;DHT22;1974;48.670;8.994;2023-04-20T06:30:35;9.40;99.90
3919;DHT22;1974;48.670;8.994;2023-04-20T06:33:03;9.60;99.90
3919;DHT22;1974;48.670;8.994;2023-04-20T06:35:30;9.90;99.90
3919;DHT22;1974;48.670;8.994;2023-04-20T06:37:57;10.10;99.90
3919;DHT22;1974;48.670;8.994;2023-04-20T06:40:27;9.90;99.90
3919;DHT22;1974;48.670;8.994;2023-04-20T06:42:54;9.50;99.90
3919;DHT22;1974;48.670;8.994;2023-04-20T06:45:21;9.10;99.90
3919;DHT22;1974;48.670;8.994;2023-04-20T06:47:47;8.90;99.90
3919;DHT22;1974;48.670;8.994;2023-04-20T06:50:16;8.80;99.90
3919;DHT22;1974;48.670;8.994;2023-04-20T06:52:42;8.60;99.90
3919;DHT22;1974;48.670;8.994;2023-04-20T06:55:09;8.60;99.90
3919;DHT22;1974;48.670;8.994;2023-04-20T06:57:36;8.60;99.90
3919;DHT22;1974;48.670;8.994;2023-04-20T07:00:05;9.00;99.90
3919;DHT22;1974;48.670;8.994;2023-04-20T07:02:41;9.60;99.90
3919;DHT22;1974;48.670;8.994;2023-04-20T07:05:08;10.80;99.90
3919;DHT22;1974;48.670;8.994;2023-04-20T07:07:37;11.90;99.90
3919;DHT22;1974;48.670;8.994;2023-04-20T07:10:04;13.00;99.90
3919;DHT22;1974;48.670;8.994;2023-04-20T07:12:33;14.10;99.90
3919;DHT22;1974;48.670;8.994;2023-04-20T07:15:00;14.60;99.90
3919;DHT22;1974;48.670;8.994;2023-04-20T07:17:28;14.80;99.90
3919;DHT22;1974;48.670;8.994;2023-04-20T07:19:54;14.40;99.50
3919;DHT22;1974;48.670;8.994;2023-04-20T07:22:22;14.10;99.90
3919;DHT22;1974;48.670;8.994;2023-04-20T07:24:50;13.40;99.90
3919;DHT22;1974;48.670;8.994;2023-04-20T07:27:17;13.20;99.90
3919;DHT22;1974;48.670;8.994;2023-04-20T07:29:44;12.90;99.90
3919;DHT22;1974;48.670;8.994;2023-04-20T07:32:10;13.10;99.90
3919;DHT22;1974;48.670;8.994;2023-04-20T07:34:37;13.20;99.90
3919;DHT22;1974;48.670;8.994;2023-04-20T07:37:04;13.20;99.90
3919;DHT22;1974;48.670;8.994;2023-04-20T07:39:30;13.00;99.90
3919;DHT22;1974;48.670;8.994;2023-04-20T07:42:01;13.10;99.90
3919;DHT22;1974;48.670;8.994;2023-04-20T07:44:27;13.00;99.90
3919;DHT22;1974;48.670;8.994;2023-04-20T07:46:54;13.70;99.90
3919;DHT22;1974;48.670;8.994;2023-04-20T07:49:22;13.40;99.60
3919;DHT22;1974;48.670;8.994;2023-04-20T07:51:48;12.70;99.90
3919;DHT22;1974;48.670;8.994;2023-04-20T07:54:15;11.90;99.90
3919;DHT22;1974;48.670;8.994;2023-04-20T07:56:42;11.20;99.90
3919;DHT22;1974;48.670;8.994;2023-04-20T07:59:10;10.60;99.90
3919;DHT22;1974;48.670;8.994;2023-04-20T08:01:36;10.30;99.90
3919;DHT22;1974;48.670;8.994;2023-04-20T08:04:03;10.10;99.90
3919;DHT22;1974;48.670;8.994;2023-04-20T08:06:30;9.80;99.90
3919;DHT22;1974;48.670;8.994;2023-04-20T08:08:57;9.60;99.90
3919;DHT22;1974;48.670;8.994;2023-04-20T08:11:24;9.40;99.90
3919;DHT22;1974;48.670;8.994;2023-04-20T08:13:51;9.00;99.90
3919;DHT22;1974;48.670;8.994;2023-04-20T08:16:19;8.80;99.90
3919;DHT22;1974;48.670;8.994;2023-04-20T08:18:46;8.50;99.90
3919;DHT22;1974;48.670;8.994;2023-04-20T08:21:12;8.30;99.90
3919;DHT22;1974;48.670;8.994;2023-04-20T08:23:39;8.20;99.90
3919;DHT22;1974;48.670;8.994;2023-04-20T08:26:06;8.00;99.90
3919;DHT22;1974;48.670;8.994;2023-04-20T08:28:33;7.70;99.90
3919;DHT22;1974;48.670;8.994;2023-04-20T08:31:00;7.50;99.90
3919;DHT22;1974;48.670;8.994;2023-04-20T08:33:28;7.40;99.90
3919;DHT22;1974;48.670;8.994;2023-04-20T08:35:54;7.20;99.90
3919;DHT22;1974;48.670;8.994;2023-04-20T08:38:21;7.00;99.90
3919;DHT22;1974;48.670;8.994;2023-04-20T08:40:49;6.90;99.90
3919;DHT22;1974;48.670;8.994;2023-04-20T08:43:15;6.70;99.90
3919;DHT22;1974;48.670;8.994;2023-04-20T08:45:46;6.60;99.90
3919;DHT22;1974;48.670;8.994;2023-04-20T08:48:16;6.50;99.90
3919;DHT22;1974;48.670;8.994;2023-04-20T08:50:47;6.40;99.90
3919;DHT22;1974;48.670;8.994;2023-04-20T08:53:13;6.30;99.90
3919;DHT22;1974;48.670;8.994;2023-04-20T08:55:40;6.20;99.90
3919;DHT22;1974;48.670;8.994;2023-04-20T08:58:07;6.20;99.90
3919;DHT22;1974;48.670;8.994;2023-04-20T09:00:34;6.20;99.90
3919;DHT22;1974;48.670;8.994;2023-04-20T09:03:00;6.20;99.90
3919;DHT22;1974;48.670;8.994;2023-04-20T09:05:28;6.20;99.90
3919;DHT22;1974;48.670;8.994;2023-04-20T09:07:59;6.20;99.90
3919;DHT22;1974;48.670;8.994;2023-04-20T09:10:38;6.20;99.90
3919;DHT22;1974;48.670;8.994;2023-04-20T09:13:05;6.10;99.90
3919;DHT22;1974;48.670;8.994;2023-04-20T09:15:32;6.10;99.90
3919;DHT22;1974;48.670;8.994;2023-04-20T09:18:10;6.10;99.90
3919;DHT22;1974;48.670;8.994;2023-04-20T09:20:37;6.20;99.90
3919;DHT22;1974;48.670;8.994;2023-04-20T09:23:11;6.20;99.90
3919;DHT22;1974;48.670;8.994;2023-04-20T09:25:38;6.20;99.90
3919;DHT22;1974;48.670;8.994;2023-04-20T09:28:07;6.40;99.90
3919;DHT22;1974;48.670;8.994;2023-04-20T09:30:38;6.40;99.90
3919;DHT22;1974;48.670;8.994;2023-04-20T09:33:05;6.40;99.90
3919;DHT22;1974;48.670;8.994;2023-04-20T09:35:35;6.40;99.90
3919;DHT22;1974;48.670;8.994;2023-04-20T09:38:02;6.40;99.90
3919;DHT22;1974;48.670;8.994;2023-04-20T09:40:31;6.40;99.90
3919;DHT22;1974;48.670;8.994;2023-04-20T09:43:02;6.40;99.90
3919;DHT22;1974;48.670;8.994;2023-04-20T09:45:30;6.40;99.90
3919;DHT22;1974;48.670;8.994;2023-04-20T09:47:57;6.40;99.90
3919;DHT22;1974;48.670;8.994;2023-04-20T09:50:25;6.40;99.90
3919;DHT22;1974;48.670;8.994;2023-04-20T09:52:52;6.50;99.90
3919;DHT22;1974;48.670;8.994;2023-04-20T09:55:19;6.60;99.90
3919;DHT22;1974;48.670;8.994;2023-04-20T09:57:48;6.60;99.90
3919;DHT22;1974;48.670;8.994;2023-04-20T10:00:16;6.60;99.90
3919;DHT22;1974;48.670;8.994;2023-04-20T10:02:45;6.60;99.90
3919;DHT22;1974;48.670;8.994;2023-04-20T10:05:12;6.60;99.90
3919;DHT22;1974;48.670;8.994;2023-04-20T10:07:40;6.60;99.90
3919;DHT22;1974;48.670;8.994;2023-04-20T10:10:08;6.70;99.90
3919;DHT22;1974;48.670;8.994;2023-04-20T10:12:50;6.70;99.90
3919;DHT22;1974;48.670;8.994;2023-04-20T10:15:18;6.70;99.90
3919;DHT22;1974;48.670;8.994;2023-04-20T10:17:46;6.60;99.90
3919;DHT22;1974;48.670;8.994;2023-04-20T10:20:20;6.70;99.90
3919;DHT22;1974;48.670;8.994;2023-04-20T10:22:48;6.70;99.90
3919;DHT22;1974;48.670;8.994;2023-04-20T10:25:16;6.70;99.90
3919;DHT22;1974;48.670;8.994;2023-04-20T10:27:57;6.70;99.90
3919;DHT22;1974;48.670;8.994;2023-04-20T10:30:25;6.70;99.90
3919;DHT22;1974;48.670;8.994;2023-04-20T10:33:03;6.70;99.90
3919;DHT22;1974;48.670;8.994;2023-04-20T10:35:40;6.60;99.90
3919;DHT22;1974;48.670;8.994;2023-04-20T10:38:07;6.60;99.90
3919;DHT22;1974;48.670;8.994;2023-04-20T10:40:35;6.50;99.90
3919;DHT22;1974;48.670;8.994;2023-04-20T10:43:03;6.60;99.90
3919;DHT22;1974;48.670;8.994;2023-04-20T10:45:33;6.70;99.90
3919;DHT22;1974;48.670;8.994;2023-04-20T10:48:06;6.80;99.90
3919;DHT22;1974;48.670;8.994;2023-04-20T10:50:33;6.80;99.90
3919;DHT22;1974;48.670;8.994;2023-04-20T10:53:01;6.80;99.90
3919;DHT22;1974;48.670;8.994;2023-04-20T10:55:29;6.60;99.90
3919;DHT22;1974;48.670;8.994;2023-04-20T10:57:56;6.60;99.90
3919;DHT22;1974;48.670;8.994;2023-04-20T11:00:26;6.40;99.90
3919;DHT22;1974;48.670;8.994;2023-04-20T11:02:55;6.20;99.90
3919;DHT22;1974;48.670;8.994;2023-04-20T11:05:23;6.20;99.90
3919;DHT22;1974;48.670;8.994;2023-04-20T11:07:51;6.10;99.90
3919;DHT22;1974;48.670;8.994;2023-04-20T11:10:18;6.00;99.90
3919;DHT22;1974;48.670;8.994;2023-04-20T11:12:45;6.00;99.90
3919;DHT22;1974;48.670;8.994;2023-04-20T11:15:12;6.00;99.90
3919;DHT22;1974;48.670;8.994;2023-04-20T11:17:40;6.10;99.90
3919;DHT22;1974;48.670;8.994;2023-04-20T11:20:09;6.20;99.90
3919;DHT22;1974;48.670;8.994;2023-04-20T11:22:37;6.20;99.90
3919;DHT22;1974;48.670;8.994;2023-04-20T11:25:04;6.20;99.90
3919;DHT22;1974;48.670;8.994;2023-04-20T11:27:31;6.20;99.90
3919;DHT22;1974;48.670;8.994;2023-04-20T11:29:58;6.10;99.90
3919;DHT22;1974;48.670;8.994;2023-04-20T11:32:30;6.10;99.90
3919;DHT22;1974;48.670;8.994;2023-04-20T11:34:59;5.90;99.90
3919;DHT22;1974;48.670;8.994;2023-04-20T11:37:27;5.90;99.90
3919;DHT22;1974;48.670;8.994;2023-04-20T11:40:00;5.80;99.90
3919;DHT22;1974;48.670;8.994;2023-04-20T11:42:28;5.80;99.90
3919;DHT22;1974;48.670;8.994;2023-04-20T11:44:55;5.80;99.90
3919;DHT22;1974;48.670;8.994;2023-04-20T11:47:21;5.80;99.90
3919;DHT22;1974;48.670;8.994;2023-04-20T11:49:48;5.80;99.90
3919;DHT22;1974;48.670;8.994;2023-04-20T11:52:16;5.80;99.90
3919;DHT22;1974;48.670;8.994;2023-04-20T11:54:43;5.80;99.90
3919;DHT22;1974;48.670;8.994;2023-04-20T11:57:10;5.70;99.90
3919;DHT22;1974;48.670;8.994;2023-04-20T11:59:37;5.70;99.90
3919;DHT22;1974;48.670;8.994;2023-04-20T12:02:04;5.70;99.90
3919;DHT22;1974;48.670;8.994;2023-04-20T12:04:30;5.70;99.90
3919;DHT22;1974;48.670;8.994;2023-04-20T12:07:00;5.70;99.90
3919;DHT22;1974;48.670;8.994;2023-04-20T12:09:29;5.60;99.90
3919;DHT22;1974;48.670;8.994;2023-04-20T12:12:00;5.60;99.90
3919;DHT22;1974;48.670;8.994;2023-04-20T12:14:27;5.70;99.90
3919;DHT22;1974;48.670;8.994;2023-04-20T12:16:54;5.70;99.90
3919;DHT22;1974;48.670;8.994;2023-04-20T12:19:21;5.80;99.90
3919;DHT22;1974;48.670;8.994;2023-04-20T12:21:47;5.80;99.90
3919;DHT22;1974;48.670;8.994;2023-04-20T12:24:14;5.80;99.90
3919;DHT22;1974;48.670;8.994;2023-04-20T12:26:42;5.90;99.90
3919;DHT22;1974;48.670;8.994;2023-04-20T12:29:09;6.00;99.90
3919;DHT22;1974;48.670;8.994;2023-04-20T12:31:36;6.10;99.90
3919;DHT22;1974;48.670;8.994;2023-04-20T12:34:02;6.20;99.90
3919;DHT22;1974;48.670;8.994;2023-04-20T12:36:29;6.40;99.90
3919;DHT22;1974;48.670;8.994;2023-04-20T12:38:56;6.40;99.90
3919;DHT22;1974;48.670;8.994;2023-04-20T12:41:23;6.50;99.90
3919;DHT22;1974;48.670;8.994;2023-04-20T12:43:51;6.40;99.90
3919;DHT22;1974;48.670;8.994;2023-04-20T12:46:19;6.40;99.90
3919;DHT22;1974;48.670;8.994;2023-04-20T12:48:46;6.40;99.90
3919;DHT22;1974;48.670;8.994;2023-04-20T12:51:13;6.40;99.90
3919;DHT22;1974;48.670;8.994;2023-04-20T12:53:40;6.50;99.90
3919;DHT22;1974;48.670;8.994;2023-04-20T12:56:07;6.50;99.90
3919;DHT22;1974;48.670;8.994;2023-04-20T12:58:34;6.50;99.90
3919;DHT22;1974;48.670;8.994;2023-04-20T13:01:02;6.50;99.90
3919;DHT22;1974;48.670;8.994;2023-04-20T13:03:29;6.60;99.90
3919;DHT22;1974;48.670;8.994;2023-04-20T13:05:56;6.60;99.90
3919;DHT22;1974;48.670;8.994;2023-04-20T13:08:22;6.70;99.90
3919;DHT22;1974;48.670;8.994;2023-04-20T13:10:49;6.70;99.90
3919;DHT22;1974;48.670;8.994;2023-04-20T13:13:16;6.70;99.90
3919;DHT22;1974;48.670;8.994;2023-04-20T13:15:42;6.70;99.90
3919;DHT22;1974;48.670;8.994;2023-04-20T13:18:10;6.70;99.90
3919;DHT22;1974;48.670;8.994;2023-04-20T13:20:39;6.80;99.90
3919;DHT22;1974;48.670;8.994;2023-04-20T13:23:06;6.80;99.90
3919;DHT22;1974;48.670;8.994;2023-04-20T13:25:32;6.80;99.90
3919;DHT22;1974;48.670;8.994;2023-04-20T13:28:00;6.80;99.90
3919;DHT22;1974;48.670;8.994;2023-04-20T13:30:27;6.90;99.90
3919;DHT22;1974;48.670;8.994;2023-04-20T13:32:54;6.80;99.90
3919;DHT22;1974;48.670;8.994;2023-04-20T13:35:22;6.80;99.90
3919;DHT22;1974;48.670;8.994;2023-04-20T13:37:49;6.80;99.90
3919;DHT22;1974;48.670;8.994;2023-04-20T13:40:16;6.80;99.90
3919;DHT22;1974;48.670;8.994;2023-04-20T13:42:43;6.90;99.90
3919;DHT22;1974;48.670;8.994;2023-04-20T13:45:11;6.90;99.90
3919;DHT22;1974;48.670;8.994;2023-04-20T13:47:38;6.80;99.90
3919;DHT22;1974;48.670;8.994;2023-04-20T13:50:05;6.90;99.90
3919;DHT22;1974;48.670;8.994;2023-04-20T13:52:34;6.90;99.90
3919;DHT22;1974;48.670;8.994;2023-04-20T13:55:01;6.90;99.90
3919;DHT22;1974;48.670;8.994;2023-04-20T13:57:28;6.90;99.90
3919;DHT22;1974;48.670;8.994;2023-04-20T13:59:56;7.00;99.90
3919;DHT22;1974;48.670;8.994;2023-04-20T14:02:23;7.00;99.90
3919;DHT22;1974;48.670;8.994;2023-04-20T14:04:50;7.00;99.90
3919;DHT22;1974;48.670;8.994;2023-04-20T14:07:17;7.10;99.90
3919;DHT22;1974;48.670;8.994;2023-04-20T14:09:45;7.10;99.90
3919;DHT22;1974;48.670;8.994;2023-04-20T14:12:12;7.10;99.90
3919;DHT22;1974;48.670;8.994;2023-04-20T14:14:39;7.10;99.90
3919;DHT22;1974;48.670;8.994;2023-04-20T14:17:06;7.10;99.90
3919;DHT22;1974;48.670;8.994;2023-04-20T14:19:32;7.10;99.90
3919;DHT22;1974;48.670;8.994;2023-04-20T14:21:59;7.10;99.90
3919;DHT22;1974;48.670;8.994;2023-04-20T14:24:26;7.10;99.90
3919;DHT22;1974;48.670;8.994;2023-04-20T14:26:54;7.00;99.90
3919;DHT22;1974;48.670;8.994;2023-04-20T14:29:21;6.90;99.90
3919;DHT22;1974;48.670;8.994;2023-04-20T14:31:48;6.90;99.90
3919;DHT22;1974;48.670;8.994;2023-04-20T14:34:14;6.80;99.90
3919;DHT22;1974;48.670;8.994;2023-04-20T14:36:41;6.70;99.90
3919;DHT22;1974;48.670;8.994;2023-04-20T14:39:08;6.60;99.90
3919;DHT22;1974;48.670;8.994;2023-04-20T14:41:35;6.60;99.90
3919;DHT22;1974;48.670;8.994;2023-04-20T14:44:03;6.50;99.90
3919;DHT22;1974;48.670;8.994;2023-04-20T14:46:29;6.60;99.90
3919;DHT22;1974;48.670;8.994;2023-04-20T14:48:56;6.50;99.90
3919;DHT22;1974;48.670;8.994;2023-04-20T14:51:23;6.50;99.90
3919;DHT22;1974;48.670;8.994;2023-04-20T14:53:50;6.40;99.90
3919;DHT22;1974;48.670;8.994;2023-04-20T14:56:16;6.50;99.90
3919;DHT22;1974;48.670;8.994;2023-04-20T14:58:43;6.50;99.90
3919;DHT22;1974;48.670;8.994;2023-04-20T15:01:13;6.50;99.90
3919;DHT22;1974;48.670;8.994;2023-04-20T15:03:41;6.40;99.90
3919;DHT22;1974;48.670;8.994;2023-04-20T15:06:08;6.40;99.90
3919;DHT22;1974;48.670;8.994;2023-04-20T15:08:35;6.30;99.90
3919;DHT22;1974;48.670;8.994;2023-04-20T15:11:02;6.20;99.90
3919;DHT22;1974;48.670;8.994;2023-04-20T15:13:30;6.20;99.90
3919;DHT22;1974;48.670;8.994;2023-04-20T15:15:57;6.30;99.90
3919;DHT22;1974;48.670;8.994;2023-04-20T15:18:25;6.30;99.90
3919;DHT22;1974;48.670;8.994;2023-04-20T15:20:52;6.20;99.90
3919;DHT22;1974;48.670;8.994;2023-04-20T15:23:18;6.20;99.90
3919;DHT22;1974;48.670;8.994;2023-04-20T15:25:45;6.30;99.90
3919;DHT22;1974;48.670;8.994;2023-04-20T15:28:12;6.30;99.90
3919;DHT22;1974;48.670;8.994;2023-04-20T15:30:39;6.40;99.90
3919;DHT22;1974;48.670;8.994;2023-04-20T15:33:06;6.40;99.90
3919;DHT22;1974;48.670;8.994;2023-04-20T15:35:34;6.40;99.90
3919;DHT22;1974;48.670;8.994;2023-04-20T15:38:01;6.30;99.90
3919;DHT22;1974;48.670;8.994;2023-04-20T15:40:28;6.30;99.90
3919;DHT22;1974;48.670;8.994;2023-04-20T15:42:54;6.30;99.90
3919;DHT22;1974;48.670;8.994;2023-04-20T15:45:21;6.20;99.90
3919;DHT22;1974;48.670;8.994;2023-04-20T15:47:48;6.20;99.90
3919;DHT22;1974;48.670;8.994;2023-04-20T15:50:16;6.30;99.90
3919;DHT22;1974;48.670;8.994;2023-04-20T15:52:44;6.30;99.90
3919;DHT22;1974;48.670;8.994;2023-04-20T15:55:14;6.20;99.90
3919;DHT22;1974;48.670;8.994;2023-04-20T15:57:40;6.20;99.90
3919;DHT22;1974;48.670;8.994;2023-04-20T16:00:08;6.20;99.90
3919;DHT22;1974;48.670;8.994;2023-04-20T16:02:35;6.10;99.90
3919;DHT22;1974;48.670;8.994;2023-04-20T16:05:04;6.20;99.90
3919;DHT22;1974;48.670;8.994;2023-04-20T16:07:31;6.30;99.90
3919;DHT22;1974;48.670;8.994;2023-04-20T16:09:59;6.20;99.90
3919;DHT22;1974;48.670;8.994;2023-04-20T16:12:27;6.20;99.90
3919;DHT22;1974;48.670;8.994;2023-04-20T16:14:54;6.20;99.90
3919;DHT22;1974;48.670;8.994;2023-04-20T16:17:21;6.20;99.90